createdAt,value
2019-02-22T00:01:38.822Z,5.43
2019-02-22T00:04:27.672Z,5.00
2019-02-22T00:07:17.083Z,4.47
2019-02-22T00:10:08.318Z,5.97
2019-02-22T00:12:57.274Z,5.30
2019-02-22T00:15:46.736Z,5.70
2019-02-22T00:18:36.367Z,5.47
2019-02-22T00:21:25.301Z,5.50
2019-02-22T00:24:14.752Z,4.80
2019-02-22T00:27:04.038Z,4.03
2019-02-22T00:29:52.944Z,4.30
2019-02-22T00:32:42.641Z,5.40
2019-02-22T00:35:32.228Z,4.53
2019-02-22T00:38:21.128Z,4.83
2019-02-22T00:41:09.775Z,4.13
2019-02-22T00:43:59.144Z,5.07
2019-02-22T00:46:51.660Z,5.37
2019-02-22T00:49:40.983Z,4.80
2019-02-22T00:52:30.185Z,5.00
2019-02-22T00:55:19.413Z,4.20
2019-02-22T00:58:07.662Z,4.47
2019-02-22T01:00:57.494Z,3.20
2019-02-22T01:03:46.222Z,4.97
2019-02-22T01:06:34.991Z,4.30
2019-02-22T01:09:24.505Z,5.57
2019-02-22T01:12:13.286Z,4.17
2019-02-22T01:15:02.594Z,3.23
2019-02-22T01:17:52.236Z,3.87
2019-02-22T01:20:41.069Z,5.07
2019-02-22T01:23:30.233Z,5.13
2019-02-22T01:26:19.903Z,7.00
2019-02-22T01:29:08.694Z,5.77
2019-02-22T01:31:57.025Z,5.80
2019-02-22T01:34:46.520Z,4.77
2019-02-22T01:37:35.571Z,5.67
2019-02-22T01:40:24.941Z,4.47
2019-02-22T01:43:13.702Z,4.90
2019-02-22T01:46:03.197Z,4.97
2019-02-22T01:48:52.411Z,6.13
2019-02-22T01:51:41.763Z,7.50
2019-02-22T01:54:30.412Z,3.77
2019-02-22T01:57:18.905Z,4.30
2019-02-22T02:00:08.688Z,4.87
2019-02-22T02:02:57.704Z,3.53
2019-02-22T02:05:46.991Z,4.37
2019-02-22T02:08:36.282Z,5.40
2019-02-22T02:11:25.515Z,5.70
2019-02-22T02:14:14.985Z,4.80
2019-02-22T02:17:04.149Z,5.07
2019-02-22T02:19:53.466Z,5.20
2019-02-22T02:22:43.773Z,3.70
2019-02-22T02:25:32.684Z,4.43
2019-02-22T02:28:21.981Z,4.10
2019-02-22T02:31:11.438Z,6.50
2019-02-22T02:34:01.781Z,5.83
2019-02-22T02:36:51.121Z,7.40
2019-02-22T02:39:41.000Z,2.83
2019-02-22T02:42:30.898Z,5.77
2019-02-22T02:45:20.413Z,5.50
2019-02-22T02:48:09.066Z,6.53
2019-02-22T02:50:57.854Z,5.23
2019-02-22T02:53:46.428Z,4.60
2019-02-22T02:56:36.123Z,3.70
2019-02-22T02:59:25.345Z,5.70
2019-02-22T03:02:20.058Z,5.40
2019-02-22T03:05:08.700Z,3.23
2019-02-22T03:07:58.125Z,4.07
2019-02-22T03:10:47.469Z,4.47
2019-02-22T03:13:36.228Z,5.37
2019-02-22T03:16:25.046Z,5.40
2019-02-22T03:19:13.658Z,5.10
2019-02-22T03:22:03.053Z,4.77
2019-02-22T03:24:53.697Z,4.47
2019-02-22T03:27:43.057Z,5.73
2019-02-22T03:30:32.159Z,5.67
2019-02-22T03:33:20.936Z,5.03
2019-02-22T03:36:10.250Z,3.27
2019-02-22T03:38:59.896Z,5.07
2019-02-22T03:41:48.923Z,5.23
2019-02-22T03:44:38.136Z,4.63
2019-02-22T03:47:27.830Z,5.20
2019-02-22T03:50:16.711Z,6.27
2019-02-22T03:53:30.807Z,3.60
2019-02-22T03:56:19.160Z,5.00
2019-02-22T03:59:10.029Z,3.70
2019-02-22T04:01:59.238Z,4.30
2019-02-22T04:04:48.992Z,4.10
2019-02-22T04:07:38.444Z,5.67
2019-02-22T04:10:27.473Z,4.00
2019-02-22T04:13:16.068Z,5.70
2019-02-22T04:16:05.545Z,4.07
2019-02-22T04:18:54.592Z,4.23
2019-02-22T04:21:43.693Z,5.00
2019-02-22T04:24:33.069Z,5.10
2019-02-22T04:27:22.145Z,4.60
2019-02-22T04:30:11.615Z,5.00
2019-02-22T04:33:00.879Z,5.63
2019-02-22T04:35:52.084Z,4.83
2019-02-22T04:38:40.643Z,5.03
2019-02-22T04:41:30.518Z,5.40
2019-02-22T04:44:18.627Z,6.03
2019-02-22T04:47:06.873Z,5.33
2019-02-22T04:49:55.717Z,3.37
2019-02-22T04:52:44.989Z,4.77
2019-02-22T04:55:33.899Z,4.83
2019-02-22T04:58:25.483Z,4.57
2019-02-22T05:01:14.697Z,4.70
2019-02-22T05:04:03.898Z,4.93
2019-02-22T05:06:52.673Z,5.30
2019-02-22T05:09:41.930Z,5.37
2019-02-22T05:12:30.937Z,4.53
2019-02-22T05:15:20.516Z,6.63
2019-02-22T05:18:09.536Z,4.63
2019-02-22T05:20:58.812Z,4.40
2019-02-22T05:23:47.370Z,6.43
2019-02-22T05:26:36.753Z,4.63
2019-02-22T05:29:25.693Z,5.53
2019-02-22T05:32:14.597Z,4.27
2019-02-22T05:35:04.063Z,6.50
2019-02-22T05:37:53.248Z,5.07
2019-02-22T05:40:42.629Z,6.13
2019-02-22T05:43:31.151Z,4.43
2019-02-22T05:46:20.680Z,6.47
2019-02-22T05:49:11.348Z,3.80
2019-02-22T05:52:00.122Z,5.37
2019-02-22T05:54:49.351Z,4.37
2019-02-22T05:57:38.779Z,4.93
2019-02-22T06:00:27.924Z,5.40
2019-02-22T06:03:17.172Z,5.10
2019-02-22T06:06:06.371Z,4.83
2019-02-22T06:08:55.935Z,5.40
2019-02-22T06:11:45.359Z,6.37
2019-02-22T06:14:34.638Z,5.83
2019-02-22T06:17:23.660Z,5.60
2019-02-22T06:20:12.694Z,4.83
2019-02-22T06:23:02.142Z,6.10
2019-02-22T06:25:51.236Z,5.23
2019-02-22T06:28:40.796Z,4.80
2019-02-22T06:31:30.238Z,5.00
2019-02-22T06:34:19.141Z,5.60
2019-02-22T06:37:08.417Z,5.87
2019-02-22T06:39:57.072Z,5.70
2019-02-22T06:42:46.454Z,5.63
2019-02-22T06:45:36.222Z,6.10
2019-02-22T06:48:25.211Z,5.03
2019-02-22T06:51:14.609Z,5.20
2019-02-22T06:54:03.291Z,5.50
2019-02-22T06:56:52.130Z,3.67
2019-02-22T06:59:41.530Z,4.60
2019-02-22T07:02:30.481Z,3.90
2019-02-22T07:05:19.149Z,5.80
2019-02-22T07:08:08.550Z,4.73
2019-02-22T07:11:17.106Z,6.43
2019-02-22T07:14:06.129Z,4.73
2019-02-22T07:16:55.301Z,3.90
2019-02-22T07:19:44.314Z,6.17
2019-02-22T07:22:33.335Z,5.00
2019-02-22T07:25:22.489Z,5.20
2019-02-22T07:28:11.659Z,5.53
2019-02-22T07:31:01.107Z,4.90
2019-02-22T07:33:50.649Z,4.60
2019-02-22T07:36:40.063Z,4.93
2019-02-22T07:39:29.109Z,4.10
2019-02-22T07:42:17.487Z,5.70
2019-02-22T07:45:08.550Z,5.97
2019-02-22T07:47:58.442Z,5.30
2019-02-22T07:50:56.986Z,5.33
2019-02-22T07:53:38.233Z,5.00
2019-02-22T07:56:27.550Z,7.33
2019-02-22T07:59:16.871Z,5.47
2019-02-22T08:02:06.438Z,6.83
2019-02-22T08:04:55.109Z,8.80
2019-02-22T08:07:44.651Z,7.63
2019-02-22T08:10:33.911Z,8.40
2019-02-22T08:13:22.973Z,5.53
2019-02-22T08:16:12.309Z,7.63
2019-02-22T08:19:02.088Z,4.40
2019-02-22T08:21:51.323Z,8.17
2019-02-22T08:24:40.506Z,6.37
2019-02-22T08:27:29.410Z,4.80
2019-02-22T08:30:18.362Z,6.07
2019-02-22T08:33:07.339Z,9.53
2019-02-22T08:35:56.727Z,6.20
2019-02-22T08:38:45.833Z,3.20
2019-02-22T08:41:35.670Z,6.63
2019-02-22T08:44:24.617Z,5.77
2019-02-22T08:47:13.712Z,4.40
2019-02-22T08:50:02.971Z,6.20
2019-02-22T08:52:51.907Z,6.80
2019-02-22T08:55:40.886Z,5.90
2019-02-22T08:58:30.341Z,6.23
2019-02-22T09:01:19.909Z,6.40
2019-02-22T09:04:09.247Z,7.40
2019-02-22T09:06:57.831Z,6.93
2019-02-22T09:09:46.933Z,6.80
2019-02-22T09:12:36.534Z,7.77
2019-02-22T09:15:25.374Z,8.23
2019-02-22T09:18:14.582Z,9.20
2019-02-22T09:21:03.871Z,6.80
2019-02-22T09:23:53.259Z,6.50
2019-02-22T09:26:42.222Z,6.20
2019-02-22T09:29:31.378Z,6.17
2019-02-22T09:32:20.631Z,7.23
2019-02-22T09:35:10.782Z,6.13
2019-02-22T09:38:00.572Z,5.87
2019-02-22T09:40:49.699Z,4.80
2019-02-22T09:43:39.273Z,6.23
2019-02-22T09:46:28.658Z,5.47
2019-02-22T09:49:18.411Z,4.00
2019-02-22T09:52:07.538Z,6.07
2019-02-22T09:54:56.304Z,5.40
2019-02-22T09:57:45.493Z,4.10
2019-02-22T10:00:34.915Z,4.53
2019-02-22T10:03:24.764Z,3.60
2019-02-22T10:06:13.739Z,5.70
2019-02-22T10:09:04.045Z,5.00
2019-02-22T10:11:54.137Z,6.57
2019-02-22T10:14:43.354Z,5.60
2019-02-22T10:17:33.311Z,4.20
2019-02-22T10:20:22.481Z,5.50
2019-02-22T10:23:11.401Z,5.50
2019-02-22T10:26:00.628Z,5.60
2019-02-22T10:28:49.590Z,4.80
2019-02-22T10:31:38.868Z,3.43
2019-02-22T10:34:27.913Z,5.13
2019-02-22T10:37:17.702Z,4.20
2019-02-22T10:40:06.793Z,5.33
2019-02-22T10:42:56.201Z,5.50
2019-02-22T10:45:45.895Z,6.40
2019-02-22T10:48:34.799Z,5.70
2019-02-22T10:51:23.610Z,6.47
2019-02-22T10:54:12.563Z,4.63
2019-02-22T10:57:01.222Z,4.33
2019-02-22T10:59:50.571Z,4.47
2019-02-22T11:02:39.938Z,5.67
2019-02-22T11:05:28.741Z,2.87
2019-02-22T11:08:18.065Z,4.07
2019-02-22T11:11:06.821Z,4.23
2019-02-22T11:13:55.652Z,4.13
2019-02-22T11:16:44.861Z,3.20
2019-02-22T11:19:33.857Z,4.30
2019-02-22T11:22:23.353Z,2.63
2019-02-22T11:25:12.876Z,4.57
2019-02-22T11:28:02.346Z,4.33
2019-02-22T11:30:52.024Z,3.27
2019-02-22T11:33:41.573Z,4.57
2019-02-22T11:36:32.438Z,4.90
2019-02-22T11:39:21.960Z,6.10
2019-02-22T11:42:11.136Z,4.80
2019-02-22T11:45:00.367Z,4.83
2019-02-22T11:47:49.638Z,4.53
2019-02-22T11:50:39.514Z,3.17
2019-02-22T11:53:28.668Z,4.53
2019-02-22T11:56:17.949Z,3.33
2019-02-22T11:59:07.029Z,3.00
2019-02-22T12:01:56.514Z,3.87
2019-02-22T12:04:45.461Z,2.90
2019-02-22T12:07:35.155Z,3.17
2019-02-22T12:10:24.672Z,2.20
2019-02-22T12:13:13.895Z,2.10
2019-02-22T12:16:03.274Z,2.60
2019-02-22T12:18:52.479Z,2.97
2019-02-22T12:21:42.461Z,3.50
2019-02-22T12:24:31.379Z,3.50
2019-02-22T12:27:20.743Z,2.70
2019-02-22T12:30:11.697Z,3.23
2019-02-22T12:33:00.397Z,3.77
2019-02-22T12:35:49.939Z,2.87
2019-02-22T12:38:39.462Z,3.30
2019-02-22T12:41:28.986Z,2.90
2019-02-22T12:44:18.906Z,3.50
2019-02-22T12:47:08.192Z,2.83
2019-02-22T12:49:58.052Z,2.93
2019-02-22T12:52:55.050Z,2.60
2019-02-22T12:55:45.123Z,2.40
2019-02-22T12:58:34.846Z,1.93
2019-02-22T13:01:30.244Z,1.60
2019-02-22T13:04:20.173Z,3.50
2019-02-22T13:07:10.406Z,2.40
2019-02-22T13:09:59.889Z,3.63
2019-02-22T13:12:50.347Z,2.40
2019-02-22T13:15:39.473Z,2.30
2019-02-22T13:18:29.633Z,2.13
2019-02-22T13:21:19.188Z,3.60
2019-02-22T13:24:08.603Z,2.90
2019-02-22T13:26:58.606Z,2.23
2019-02-22T13:29:48.183Z,2.90
2019-02-22T13:32:37.620Z,2.87
2019-02-22T13:35:27.602Z,2.37
2019-02-22T13:38:16.456Z,2.93
2019-02-22T13:41:06.923Z,2.80
2019-02-22T13:43:57.814Z,2.40
2019-02-22T13:46:47.357Z,2.57
2019-02-22T13:49:36.208Z,1.80
2019-02-22T13:52:26.351Z,1.83
2019-02-22T13:55:16.001Z,2.60
2019-02-22T13:58:05.676Z,1.47
2019-02-22T14:00:54.997Z,3.10
2019-02-22T14:03:44.952Z,3.10
2019-02-22T14:06:35.241Z,3.83
2019-02-22T14:09:25.269Z,2.23
2019-02-22T14:12:14.764Z,3.30
2019-02-22T14:15:04.434Z,2.83
2019-02-22T14:17:53.668Z,2.50
2019-02-22T14:20:43.243Z,3.13
2019-02-22T14:23:32.453Z,2.37
2019-02-22T14:26:22.256Z,1.50
2019-02-22T14:29:12.542Z,2.80
2019-02-22T14:32:02.040Z,1.53
2019-02-22T14:34:50.921Z,2.50
2019-02-22T14:37:40.012Z,2.37
2019-02-22T14:40:28.960Z,1.77
2019-02-22T14:43:18.156Z,2.57
2019-02-22T14:46:07.581Z,2.80
2019-02-22T14:48:56.343Z,4.47
2019-02-22T14:51:45.309Z,3.87
2019-02-22T14:54:34.271Z,2.13
2019-02-22T14:57:23.674Z,2.67
2019-02-22T15:00:15.295Z,2.07
2019-02-22T15:03:04.725Z,3.60
2019-02-22T15:05:54.153Z,3.17
2019-02-22T15:08:43.468Z,2.57
2019-02-22T15:11:32.586Z,2.77
2019-02-22T15:14:22.336Z,2.70
2019-02-22T15:17:22.156Z,4.10
2019-02-22T15:20:11.913Z,2.93
2019-02-22T15:23:02.617Z,3.47
2019-02-22T15:25:51.598Z,3.33
2019-02-22T15:28:40.773Z,2.90
2019-02-22T15:31:36.127Z,2.70
2019-02-22T15:34:20.122Z,2.83
2019-02-22T15:37:09.693Z,2.90
2019-02-22T15:39:58.842Z,2.07
2019-02-22T15:42:48.245Z,3.27
2019-02-22T15:45:37.535Z,3.07
2019-02-22T15:48:26.676Z,2.53
2019-02-22T15:51:15.761Z,3.10
2019-02-22T15:54:04.506Z,3.23
2019-02-22T15:56:53.272Z,2.40
2019-02-22T15:59:42.929Z,2.20
2019-02-22T16:02:31.926Z,1.97
2019-02-22T16:05:29.638Z,2.10
2019-02-22T16:08:20.212Z,2.97
2019-02-22T16:11:08.978Z,2.00
2019-02-22T16:13:58.493Z,3.40
2019-02-22T16:16:47.713Z,3.33
2019-02-22T16:19:37.258Z,2.13
2019-02-22T16:22:27.283Z,2.27
2019-02-22T16:25:19.792Z,2.57
2019-02-22T16:28:06.451Z,2.10
2019-02-22T16:30:55.446Z,3.30
2019-02-22T16:33:44.748Z,3.40
2019-02-22T16:36:34.282Z,3.83
2019-02-22T16:39:23.738Z,2.33
2019-02-22T16:42:12.733Z,2.53
2019-02-22T16:45:01.965Z,2.63
2019-02-22T16:47:52.067Z,3.10
2019-02-22T16:50:41.386Z,3.10
2019-02-22T16:53:31.112Z,2.97
2019-02-22T16:56:19.937Z,2.77
2019-02-22T16:59:08.990Z,2.83
2019-02-22T17:01:58.141Z,2.50
2019-02-22T17:04:47.031Z,3.30
2019-02-22T17:07:36.241Z,1.90
2019-02-22T17:10:25.975Z,2.03
2019-02-22T17:13:15.280Z,2.47
2019-02-22T17:16:07.279Z,3.60
2019-02-22T17:18:56.596Z,1.77
2019-02-22T17:21:45.812Z,2.70
2019-02-22T17:24:35.569Z,2.50
2019-02-22T17:27:24.543Z,2.37
2019-02-22T17:30:14.819Z,3.53
2019-02-22T17:33:04.250Z,3.10
2019-02-22T17:35:53.359Z,1.90
2019-02-22T17:38:42.601Z,1.93
2019-02-22T17:41:31.886Z,2.57
2019-02-22T17:44:21.484Z,3.20
2019-02-22T17:47:10.691Z,2.73
2019-02-22T17:50:00.328Z,2.87
2019-02-22T17:52:49.282Z,3.17
2019-02-22T17:55:38.858Z,2.70
2019-02-22T17:58:28.388Z,2.43
2019-02-22T18:01:17.672Z,2.67
2019-02-22T18:04:06.482Z,3.23
2019-02-22T18:06:55.816Z,2.03
2019-02-22T18:09:45.776Z,2.43
2019-02-22T18:12:35.260Z,2.23
2019-02-22T18:15:25.060Z,1.67
2019-02-22T18:18:14.075Z,2.40
2019-02-22T18:21:03.589Z,3.90
2019-02-22T18:23:52.881Z,2.37
2019-02-22T18:26:42.393Z,2.57
2019-02-22T18:29:35.404Z,2.67
2019-02-22T18:32:21.911Z,1.97
2019-02-22T18:35:12.698Z,3.13
2019-02-22T18:38:02.127Z,3.10
2019-02-22T18:40:51.180Z,2.10
2019-02-22T18:43:40.417Z,2.43
2019-02-22T18:46:30.202Z,2.13
2019-02-22T18:49:19.936Z,2.53
2019-02-22T18:52:09.112Z,1.83
2019-02-22T18:54:58.397Z,2.10
2019-02-22T18:57:47.309Z,4.00
2019-02-22T19:00:37.463Z,2.47
2019-02-22T19:03:26.807Z,3.13
2019-02-22T19:06:16.065Z,3.33
2019-02-22T19:09:06.239Z,2.17
2019-02-22T19:11:55.520Z,2.00
2019-02-22T19:14:44.720Z,1.80
2019-02-22T19:17:34.377Z,2.63
2019-02-22T19:20:23.322Z,2.30
2019-02-22T19:23:13.263Z,1.97
2019-02-22T19:26:02.295Z,2.00
2019-02-22T19:28:51.266Z,2.27
2019-02-22T19:31:40.912Z,1.60
2019-02-22T19:34:30.381Z,2.67
2019-02-22T19:37:20.090Z,2.20
2019-02-22T19:40:12.151Z,2.33
2019-02-22T19:43:01.417Z,2.60
2019-02-22T19:45:50.587Z,2.27
2019-02-22T19:48:39.924Z,2.73
2019-02-22T19:51:29.477Z,3.20
2019-02-22T19:54:19.088Z,5.97
2019-02-22T19:57:09.041Z,3.77
2019-02-22T19:59:58.242Z,2.57
2019-02-22T20:02:47.783Z,1.53
2019-02-22T20:05:36.719Z,3.17
2019-02-22T20:08:26.461Z,3.03
2019-02-22T20:11:15.613Z,2.53
2019-02-22T20:14:05.420Z,2.20
2019-02-22T20:16:54.424Z,3.40
2019-02-22T20:19:43.763Z,5.00
2019-02-22T20:22:33.222Z,2.90
2019-02-22T20:25:22.210Z,2.77
2019-02-22T20:28:12.215Z,2.60
2019-02-22T20:31:00.824Z,2.50
2019-02-22T20:33:50.444Z,3.00
2019-02-22T20:36:39.883Z,2.60
2019-02-22T20:39:29.920Z,2.63
2019-02-22T20:42:19.120Z,3.70
2019-02-22T20:45:08.788Z,3.20
2019-02-22T20:48:04.991Z,2.40
2019-02-22T20:50:48.601Z,4.20
2019-02-22T20:53:38.197Z,3.50
2019-02-22T20:56:27.321Z,2.90
2019-02-22T20:59:16.962Z,2.57
2019-02-22T21:02:06.373Z,2.53
2019-02-22T21:04:55.657Z,2.77
2019-02-22T21:07:44.533Z,3.77
2019-02-22T21:10:33.547Z,2.97
2019-02-22T21:13:23.152Z,3.50
2019-02-22T21:16:12.472Z,3.73
2019-02-22T21:19:01.451Z,2.70
2019-02-22T21:21:50.377Z,3.73
2019-02-22T21:24:39.509Z,3.43
2019-02-22T21:27:28.687Z,3.33
2019-02-22T21:30:18.174Z,3.40
2019-02-22T21:33:07.207Z,3.17
2019-02-22T21:35:56.151Z,3.77
2019-02-22T21:38:45.680Z,4.13
2019-02-22T21:41:35.179Z,3.90
2019-02-22T21:44:24.426Z,3.90
2019-02-22T21:47:14.111Z,4.80
2019-02-22T21:50:03.309Z,4.20
2019-02-22T21:52:52.840Z,4.83
2019-02-22T21:55:42.334Z,3.50
2019-02-22T21:58:32.191Z,3.60
2019-02-22T22:01:21.216Z,2.57
2019-02-22T22:04:10.903Z,2.70
2019-02-22T22:07:00.681Z,2.70
2019-02-22T22:09:50.202Z,2.60
2019-02-22T22:12:39.235Z,4.50
2019-02-22T22:15:28.279Z,3.80
2019-02-22T22:18:18.005Z,4.10
2019-02-22T22:21:07.259Z,4.87
2019-02-22T22:23:56.711Z,3.40
2019-02-22T22:26:45.958Z,3.87
2019-02-22T22:29:35.236Z,3.07
2019-02-22T22:32:24.724Z,3.23
2019-02-22T22:35:13.482Z,2.57
2019-02-22T22:38:02.531Z,3.77
2019-02-22T22:40:52.041Z,3.20
2019-02-22T22:43:40.880Z,4.53
2019-02-22T22:46:36.833Z,3.73
2019-02-22T22:49:21.234Z,2.40
2019-02-22T22:52:10.694Z,2.90
2019-02-22T22:55:00.390Z,2.40
2019-02-22T22:57:50.097Z,2.83
2019-02-22T23:01:06.506Z,3.70
2019-02-22T23:03:55.707Z,3.10
2019-02-22T23:06:44.201Z,3.97
2019-02-22T23:09:33.220Z,2.97
2019-02-22T23:12:22.614Z,4.40
2019-02-22T23:15:12.206Z,3.07
2019-02-22T23:18:01.052Z,3.17
2019-02-22T23:20:50.638Z,3.77
2019-02-22T23:23:40.038Z,2.80
2019-02-22T23:26:29.487Z,4.37
2019-02-22T23:29:18.788Z,3.10
2019-02-22T23:32:07.836Z,2.70
2019-02-22T23:34:56.614Z,2.97
2019-02-22T23:37:45.388Z,2.97
2019-02-22T23:40:34.639Z,3.53
2019-02-22T23:43:25.586Z,2.60
2019-02-22T23:46:14.591Z,2.23
2019-02-22T23:49:12.772Z,2.77
2019-02-22T23:51:55.170Z,3.37
2019-02-22T23:54:43.786Z,4.13
2019-02-22T23:57:33.232Z,3.07
